sensor_id;sensor_type;location;lat;lon;timestamp;pressure;altitude;pressure_sealevel;temperature
69186;BMP280;56298;49.246;9.410;2023-07-31T00:00:01;99439.34;;;17.66
69186;BMP280;56298;49.246;9.410;2023-07-31T00:02:27;99442.91;;;17.66
69186;BMP280;56298;49.246;9.410;2023-07-31T00:04:52;99444.13;;;17.65
69186;BMP280;56298;49.246;9.410;2023-07-31T00:07:17;99439.72;;;17.71
69186;BMP280;56298;49.246;9.410;2023-07-31T00:09:43;99437.75;;;17.65
69186;BMP280;56298;49.246;9.410;2023-07-31T00:12:08;99433.00;;;17.69
69186;BMP280;56298;49.246;9.410;2023-07-31T00:14:33;99428.63;;;17.68
69186;BMP280;56298;49.246;9.410;2023-07-31T00:16:58;99420.75;;;17.63
69186;BMP280;56298;49.246;9.410;2023-07-31T00:19:24;99428.25;;;17.66
69186;BMP280;56298;49.246;9.410;2023-07-31T00:21:49;99425.91;;;17.61
69186;BMP280;56298;49.246;9.410;2023-07-31T00:24:14;99429.06;;;17.59
69186;BMP280;56298;49.246;9.410;2023-07-31T00:26:39;99418.72;;;17.67
69186;BMP280;56298;49.246;9.410;2023-07-31T00:29:05;99423.13;;;17.53
69186;BMP280;56298;49.246;9.410;2023-07-31T00:31:30;99423.13;;;17.53
69186;BMP280;56298;49.246;9.410;2023-07-31T00:33:55;99423.97;;;17.43
69186;BMP280;56298;49.246;9.410;2023-07-31T00:36:20;99424.00;;;17.47
69186;BMP280;56298;49.246;9.410;2023-07-31T00:38:46;99429.59;;;17.36
69186;BMP280;56298;49.246;9.410;2023-07-31T00:41:11;99424.81;;;17.40
69186;BMP280;56298;49.246;9.410;2023-07-31T00:43:36;99422.47;;;17.31
69186;BMP280;56298;49.246;9.410;2023-07-31T00:46:01;99426.84;;;17.21
69186;BMP280;56298;49.246;9.410;2023-07-31T00:48:27;99424.06;;;17.18
69186;BMP280;56298;49.246;9.410;2023-07-31T00:50:52;99420.13;;;17.11
69186;BMP280;56298;49.246;9.410;2023-07-31T00:53:18;99412.25;;;17.03
69186;BMP280;56298;49.246;9.410;2023-07-31T00:55:43;99417.78;;;17.06
69186;BMP280;56298;49.246;9.410;2023-07-31T00:58:09;99413.78;;;17.11
69186;BMP280;56298;49.246;9.410;2023-07-31T01:00:34;99424.88;;;17.11
69186;BMP280;56298;49.246;9.410;2023-07-31T01:03:00;99415.00;;;17.10
69186;BMP280;56298;49.246;9.410;2023-07-31T01:05:36;99407.50;;;17.07
69186;BMP280;56298;49.246;9.410;2023-07-31T01:08:10;99397.59;;;17.06
69186;BMP280;56298;49.246;9.410;2023-07-31T01:10:49;99403.56;;;16.97
69186;BMP280;56298;49.246;9.410;2023-07-31T01:13:17;99403.97;;;16.92
69186;BMP280;56298;49.246;9.410;2023-07-31T01:15:42;99402.00;;;16.85
69186;BMP280;56298;49.246;9.410;2023-07-31T01:18:08;99394.50;;;16.89
69186;BMP280;56298;49.246;9.410;2023-07-31T01:20:34;99392.88;;;16.84
69186;BMP280;56298;49.246;9.410;2023-07-31T01:26:03;99381.06;;;16.69
69186;BMP280;56298;49.246;9.410;2023-07-31T01:31:24;99385.81;;;16.65
69186;BMP280;56298;49.246;9.410;2023-07-31T01:33:52;99388.16;;;16.78
69186;BMP280;56298;49.246;9.410;2023-07-31T01:36:19;99378.69;;;16.72
69186;BMP280;56298;49.246;9.410;2023-07-31T01:38:44;99375.13;;;16.71
69186;BMP280;56298;49.246;9.410;2023-07-31T01:41:09;99366.81;;;16.71
69186;BMP280;56298;49.246;9.410;2023-07-31T01:43:34;99375.53;;;16.66
69186;BMP280;56298;49.246;9.410;2023-07-31T01:46:00;99378.72;;;16.68
69186;BMP280;56298;49.246;9.410;2023-07-31T01:48:25;99372.75;;;16.77
69186;BMP280;56298;49.246;9.410;2023-07-31T01:50:50;99368.81;;;16.67
69186;BMP280;56298;49.246;9.410;2023-07-31T01:53:15;99370.78;;;16.66
69186;BMP280;56298;49.246;9.410;2023-07-31T01:55:40;99368.44;;;16.61
69186;BMP280;56298;49.246;9.410;2023-07-31T01:58:06;99369.19;;;16.58
69186;BMP280;56298;49.246;9.410;2023-07-31T02:00:31;99370.41;;;16.50
69186;BMP280;56298;49.246;9.410;2023-07-31T02:02:56;99364.91;;;16.39
69186;BMP280;56298;49.246;9.410;2023-07-31T02:05:21;99368.44;;;16.47
69186;BMP280;56298;49.246;9.410;2023-07-31T02:07:47;99357.75;;;16.49
69186;BMP280;56298;49.246;9.410;2023-07-31T02:10:12;99362.91;;;16.47
69186;BMP280;56298;49.246;9.410;2023-07-31T02:12:37;99359.72;;;16.45
69186;BMP280;56298;49.246;9.410;2023-07-31T02:15:03;99359.34;;;16.46
69186;BMP280;56298;49.246;9.410;2023-07-31T02:17:28;99352.63;;;16.44
69186;BMP280;56298;49.246;9.410;2023-07-31T02:19:54;99351.03;;;16.46
69186;BMP280;56298;49.246;9.410;2023-07-31T02:22:19;99356.97;;;16.26
69186;BMP280;56298;49.246;9.410;2023-07-31T02:24:45;99351.44;;;16.08
69186;BMP280;56298;49.246;9.410;2023-07-31T02:27:10;99347.50;;;16.09
69186;BMP280;56298;49.246;9.410;2023-07-31T02:29:35;99347.09;;;16.22
69186;BMP280;56298;49.246;9.410;2023-07-31T02:32:00;99338.78;;;16.25
69186;BMP280;56298;49.246;9.410;2023-07-31T02:34:26;99340.75;;;16.29
69186;BMP280;56298;49.246;9.410;2023-07-31T02:36:51;99343.53;;;16.25
69186;BMP280;56298;49.246;9.410;2023-07-31T02:39:16;99340.78;;;16.32
69186;BMP280;56298;49.246;9.410;2023-07-31T02:41:41;99340.38;;;16.26
69186;BMP280;56298;49.246;9.410;2023-07-31T02:44:06;99332.88;;;16.34
69186;BMP280;56298;49.246;9.410;2023-07-31T02:46:32;99325.75;;;16.22
69186;BMP280;56298;49.246;9.410;2023-07-31T02:48:57;99325.34;;;16.28
69186;BMP280;56298;49.246;9.410;2023-07-31T02:51:22;99328.09;;;16.31
69186;BMP280;56298;49.246;9.410;2023-07-31T02:53:47;99327.34;;;16.34
69186;BMP280;56298;49.246;9.410;2023-07-31T02:56:13;99332.88;;;16.27
69186;BMP280;56298;49.246;9.410;2023-07-31T02:58:38;99332.84;;;16.38
69186;BMP280;56298;49.246;9.410;2023-07-31T03:01:03;99326.13;;;16.46
69186;BMP280;56298;49.246;9.410;2023-07-31T03:03:29;99323.72;;;16.52
69186;BMP280;56298;49.246;9.410;2023-07-31T03:05:54;99321.34;;;16.58
69186;BMP280;56298;49.246;9.410;2023-07-31T03:08:20;99323.72;;;16.66
69186;BMP280;56298;49.246;9.410;2023-07-31T03:10:45;99324.50;;;16.60
69186;BMP280;56298;49.246;9.410;2023-07-31T03:13:10;99320.16;;;16.59
69186;BMP280;56298;49.246;9.410;2023-07-31T03:15:35;99318.19;;;16.52
69186;BMP280;56298;49.246;9.410;2023-07-31T03:18:00;99319.78;;;16.53
69186;BMP280;56298;49.246;9.410;2023-07-31T03:20:26;99317.41;;;16.59
69186;BMP280;56298;49.246;9.410;2023-07-31T03:22:51;99330.09;;;16.56
69186;BMP280;56298;49.246;9.410;2023-07-31T03:25:16;99319.75;;;16.64
69186;BMP280;56298;49.246;9.410;2023-07-31T03:27:41;99327.25;;;16.63
69186;BMP280;56298;49.246;9.410;2023-07-31T03:30:07;99322.97;;;16.44
69186;BMP280;56298;49.246;9.410;2023-07-31T03:32:32;99328.50;;;16.44
69186;BMP280;56298;49.246;9.410;2023-07-31T03:34:58;99327.72;;;16.44
69186;BMP280;56298;49.246;9.410;2023-07-31T03:37:23;99322.19;;;16.29
69186;BMP280;56298;49.246;9.410;2023-07-31T03:39:48;99322.19;;;16.18
69186;BMP280;56298;49.246;9.410;2023-07-31T03:42:13;99323.38;;;16.24
69186;BMP280;56298;49.246;9.410;2023-07-31T03:44:39;99326.13;;;16.10
69186;BMP280;56298;49.246;9.410;2023-07-31T03:47:05;99330.91;;;16.13
69186;BMP280;56298;49.246;9.410;2023-07-31T03:49:30;99321.44;;;16.18
69186;BMP280;56298;49.246;9.410;2023-07-31T03:51:56;99317.84;;;16.21
69186;BMP280;56298;49.246;9.410;2023-07-31T03:54:21;99315.84;;;16.25
69186;BMP280;56298;49.246;9.410;2023-07-31T03:56:46;99318.63;;;16.32
69186;BMP280;56298;49.246;9.410;2023-07-31T03:59:11;99328.53;;;16.33
69186;BMP280;56298;49.246;9.410;2023-07-31T04:01:36;99321.00;;;16.37
69186;BMP280;56298;49.246;9.410;2023-07-31T04:04:02;99319.41;;;16.36
69186;BMP280;56298;49.246;9.410;2023-07-31T04:06:27;99321.81;;;16.34
69186;BMP280;56298;49.246;9.410;2023-07-31T04:08:52;99319.03;;;16.34
69186;BMP280;56298;49.246;9.410;2023-07-31T04:11:17;99324.91;;;16.47
69186;BMP280;56298;49.246;9.410;2023-07-31T04:13:43;99323.75;;;16.45
69186;BMP280;56298;49.246;9.410;2023-07-31T04:16:08;99332.84;;;16.38
69186;BMP280;56298;49.246;9.410;2023-07-31T04:18:33;99332.47;;;16.39
69186;BMP280;56298;49.246;9.410;2023-07-31T04:20:58;99329.28;;;16.34
69186;BMP280;56298;49.246;9.410;2023-07-31T04:23:24;99337.22;;;16.46
69186;BMP280;56298;49.246;9.410;2023-07-31T04:25:50;99331.66;;;16.46
69186;BMP280;56298;49.246;9.410;2023-07-31T04:28:15;99329.28;;;16.45
69186;BMP280;56298;49.246;9.410;2023-07-31T04:30:40;99332.88;;;16.45
69186;BMP280;56298;49.246;9.410;2023-07-31T04:33:06;99325.75;;;16.44
69186;BMP280;56298;49.246;9.410;2023-07-31T04:35:31;99318.22;;;16.34
69186;BMP280;56298;49.246;9.410;2023-07-31T04:37:56;99321.38;;;16.43
69186;BMP280;56298;49.246;9.410;2023-07-31T04:40:21;99322.97;;;16.40
69186;BMP280;56298;49.246;9.410;2023-07-31T04:42:47;99325.72;;;16.55
69186;BMP280;56298;49.246;9.410;2023-07-31T04:45:12;99317.78;;;16.64
69186;BMP280;56298;49.246;9.410;2023-07-31T04:47:37;99310.63;;;16.78
69186;BMP280;56298;49.246;9.410;2023-07-31T04:50:03;99309.38;;;16.97
69186;BMP280;56298;49.246;9.410;2023-07-31T04:52:28;99312.13;;;16.97
69186;BMP280;56298;49.246;9.410;2023-07-31T04:54:53;99312.13;;;17.04
69186;BMP280;56298;49.246;9.410;2023-07-31T04:57:18;99307.38;;;17.05
69186;BMP280;56298;49.246;9.410;2023-07-31T04:59:44;99308.09;;;17.20
69186;BMP280;56298;49.246;9.410;2023-07-31T05:02:11;99310.38;;;17.36
69186;BMP280;56298;49.246;9.410;2023-07-31T05:04:36;99305.63;;;17.33
69186;BMP280;56298;49.246;9.410;2023-07-31T05:07:02;99306.38;;;17.44
69186;BMP280;56298;49.246;9.410;2023-07-31T05:09:27;99304.38;;;17.45
69186;BMP280;56298;49.246;9.410;2023-07-31T05:11:52;99305.13;;;17.49
69186;BMP280;56298;49.246;9.410;2023-07-31T05:14:17;99290.50;;;17.52
69186;BMP280;56298;49.246;9.410;2023-07-31T05:16:43;99295.19;;;17.59
69186;BMP280;56298;49.246;9.410;2023-07-31T05:19:08;99291.97;;;17.67
69186;BMP280;56298;49.246;9.410;2023-07-31T05:21:33;99297.06;;;17.73
69186;BMP280;56298;49.246;9.410;2023-07-31T05:23:58;99297.44;;;17.75
69186;BMP280;56298;49.246;9.410;2023-07-31T05:26:24;99297.00;;;17.80
69186;BMP280;56298;49.246;9.410;2023-07-31T05:28:49;99299.28;;;17.96
69186;BMP280;56298;49.246;9.410;2023-07-31T05:31:14;99297.50;;;18.13
69186;BMP280;56298;49.246;9.410;2023-07-31T05:33:39;99290.06;;;18.44
69186;BMP280;56298;49.246;9.410;2023-07-31T05:36:05;99283.16;;;18.60
69186;BMP280;56298;49.246;9.410;2023-07-31T05:38:30;99290.25;;;18.65
69186;BMP280;56298;49.246;9.410;2023-07-31T05:40:55;99294.75;;;18.82
69186;BMP280;56298;49.246;9.410;2023-07-31T05:43:21;99296.69;;;18.89
69186;BMP280;56298;49.246;9.410;2023-07-31T05:45:46;99298.28;;;18.90
69186;BMP280;56298;49.246;9.410;2023-07-31T05:48:12;99291.47;;;19.50
69186;BMP280;56298;49.246;9.410;2023-07-31T05:50:37;99293.19;;;19.91
69186;BMP280;56298;49.246;9.410;2023-07-31T05:53:04;99284.75;;;20.18
69186;BMP280;56298;49.246;9.410;2023-07-31T05:55:29;99284.88;;;20.51
69186;BMP280;56298;49.246;9.410;2023-07-31T05:57:55;99282.06;;;20.92
69186;BMP280;56298;49.246;9.410;2023-07-31T06:00:20;99292.97;;;21.85
69186;BMP280;56298;49.246;9.410;2023-07-31T06:02:46;99296.34;;;22.52
69186;BMP280;56298;49.246;9.410;2023-07-31T06:05:12;99283.88;;;22.83
69186;BMP280;56298;49.246;9.410;2023-07-31T06:07:37;99276.69;;;23.33
69186;BMP280;56298;49.246;9.410;2023-07-31T06:10:02;99283.19;;;23.17
69186;BMP280;56298;49.246;9.410;2023-07-31T06:12:30;99280.88;;;23.86
69186;BMP280;56298;49.246;9.410;2023-07-31T06:14:56;99282.75;;;23.67
69186;BMP280;56298;49.246;9.410;2023-07-31T06:17:21;99279.28;;;22.89
69186;BMP280;56298;49.246;9.410;2023-07-31T06:19:47;99286.56;;;22.86
69186;BMP280;56298;49.246;9.410;2023-07-31T06:22:12;99292.47;;;23.75
69186;BMP280;56298;49.246;9.410;2023-07-31T06:24:37;99296.06;;;23.76
69186;BMP280;56298;49.246;9.410;2023-07-31T06:27:03;99300.09;;;23.75
69186;BMP280;56298;49.246;9.410;2023-07-31T06:29:29;99297.59;;;23.29
69186;BMP280;56298;49.246;9.410;2023-07-31T06:31:54;99302.19;;;23.23
69186;BMP280;56298;49.246;9.410;2023-07-31T06:34:20;99294.47;;;23.14
69186;BMP280;56298;49.246;9.410;2023-07-31T06:36:45;99284.34;;;23.55
69186;BMP280;56298;49.246;9.410;2023-07-31T06:39:10;99290.25;;;23.92
69186;BMP280;56298;49.246;9.410;2023-07-31T06:41:35;99286.13;;;24.82
69186;BMP280;56298;49.246;9.410;2023-07-31T06:44:00;99284.31;;;24.57
69186;BMP280;56298;49.246;9.410;2023-07-31T06:46:26;99294.13;;;24.08
69186;BMP280;56298;49.246;9.410;2023-07-31T06:48:51;99287.56;;;23.67
69186;BMP280;56298;49.246;9.410;2023-07-31T06:51:16;99289.53;;;23.44
69186;BMP280;56298;49.246;9.410;2023-07-31T06:53:41;99279.03;;;23.22
69186;BMP280;56298;49.246;9.410;2023-07-31T06:56:10;99278.88;;;23.52
69186;BMP280;56298;49.246;9.410;2023-07-31T06:58:35;99273.56;;;23.18
69186;BMP280;56298;49.246;9.410;2023-07-31T07:01:00;99278.84;;;22.90
69186;BMP280;56298;49.246;9.410;2023-07-31T07:03:27;99276.78;;;22.65
69186;BMP280;56298;49.246;9.410;2023-07-31T07:05:52;99282.00;;;22.37
69186;BMP280;56298;49.246;9.410;2023-07-31T07:08:17;99279.97;;;22.25
69186;BMP280;56298;49.246;9.410;2023-07-31T07:10:43;99274.38;;;21.95
69186;BMP280;56298;49.246;9.410;2023-07-31T07:13:08;99275.19;;;21.79
69186;BMP280;56298;49.246;9.410;2023-07-31T07:15:33;99287.44;;;21.69
69186;BMP280;56298;49.246;9.410;2023-07-31T07:17:59;99273.44;;;21.85
69186;BMP280;56298;49.246;9.410;2023-07-31T07:20:24;99269.19;;;22.10
69186;BMP280;56298;49.246;9.410;2023-07-31T07:22:49;99268.19;;;21.88
69186;BMP280;56298;49.246;9.410;2023-07-31T07:25:14;99267.28;;;21.61
69186;BMP280;56298;49.246;9.410;2023-07-31T07:27:40;99277.91;;;21.66
69186;BMP280;56298;49.246;9.410;2023-07-31T07:30:05;99272.75;;;21.81
69186;BMP280;56298;49.246;9.410;2023-07-31T07:32:31;99276.13;;;21.89
69186;BMP280;56298;49.246;9.410;2023-07-31T07:34:56;99277.03;;;21.69
69186;BMP280;56298;49.246;9.410;2023-07-31T07:37:21;99277.16;;;21.66
69186;BMP280;56298;49.246;9.410;2023-07-31T07:39:47;99261.78;;;21.74
69186;BMP280;56298;49.246;9.410;2023-07-31T07:42:12;99261.34;;;21.76
69186;BMP280;56298;49.246;9.410;2023-07-31T07:44:37;99264.34;;;21.98
69186;BMP280;56298;49.246;9.410;2023-07-31T07:47:03;99263.13;;;22.41
69186;BMP280;56298;49.246;9.410;2023-07-31T07:49:28;99264.84;;;22.90
69186;BMP280;56298;49.246;9.410;2023-07-31T07:51:53;99269.28;;;23.27
69186;BMP280;56298;49.246;9.410;2023-07-31T07:54:18;99269.66;;;23.64
69186;BMP280;56298;49.246;9.410;2023-07-31T07:56:46;99266.41;;;23.65
69186;BMP280;56298;49.246;9.410;2023-07-31T07:59:11;99260.84;;;23.53
69186;BMP280;56298;49.246;9.410;2023-07-31T08:01:36;99263.94;;;23.68
69186;BMP280;56298;49.246;9.410;2023-07-31T08:04:01;99259.69;;;23.63
69186;BMP280;56298;49.246;9.410;2023-07-31T08:06:27;99259.72;;;23.50
69186;BMP280;56298;49.246;9.410;2023-07-31T08:08:52;99251.50;;;23.33
69186;BMP280;56298;49.246;9.410;2023-07-31T08:11:17;99245.81;;;23.59
69186;BMP280;56298;49.246;9.410;2023-07-31T08:13:42;99244.41;;;23.99
69186;BMP280;56298;49.246;9.410;2023-07-31T08:16:08;99240.81;;;24.21
69186;BMP280;56298;49.246;9.410;2023-07-31T08:18:33;99248.94;;;24.50
69186;BMP280;56298;49.246;9.410;2023-07-31T08:20:59;99234.97;;;24.69
69186;BMP280;56298;49.246;9.410;2023-07-31T08:23:24;99242.38;;;24.94
69186;BMP280;56298;49.246;9.410;2023-07-31T08:25:49;99238.66;;;25.16
69186;BMP280;56298;49.246;9.410;2023-07-31T08:28:15;99234.56;;;24.98
69186;BMP280;56298;49.246;9.410;2023-07-31T08:30:41;99230.41;;;24.62
69186;BMP280;56298;49.246;9.410;2023-07-31T08:33:07;99228.31;;;24.76
69186;BMP280;56298;49.246;9.410;2023-07-31T08:35:32;99230.53;;;24.99
69186;BMP280;56298;49.246;9.410;2023-07-31T08:37:57;99221.38;;;25.27
69186;BMP280;56298;49.246;9.410;2023-07-31T08:40:22;99232.09;;;25.00
69186;BMP280;56298;49.246;9.410;2023-07-31T08:42:49;99225.78;;;24.68
69186;BMP280;56298;49.246;9.410;2023-07-31T08:45:19;99231.66;;;24.30
69186;BMP280;56298;49.246;9.410;2023-07-31T08:47:46;99226.69;;;24.02
69186;BMP280;56298;49.246;9.410;2023-07-31T08:50:17;99226.06;;;23.98
69186;BMP280;56298;49.246;9.410;2023-07-31T08:52:42;99228.13;;;23.85
69186;BMP280;56298;49.246;9.410;2023-07-31T08:55:08;99229.97;;;23.78
69186;BMP280;56298;49.246;9.410;2023-07-31T08:57:35;99220.69;;;23.91
69186;BMP280;56298;49.246;9.410;2023-07-31T09:00:03;99216.25;;;23.80
69186;BMP280;56298;49.246;9.410;2023-07-31T09:02:35;99217.81;;;23.81
69186;BMP280;56298;49.246;9.410;2023-07-31T09:05:03;99214.84;;;23.98
69186;BMP280;56298;49.246;9.410;2023-07-31T09:07:30;99213.69;;;24.18
69186;BMP280;56298;49.246;9.410;2023-07-31T09:09:57;99213.66;;;23.86
69186;BMP280;56298;49.246;9.410;2023-07-31T09:12:22;99215.72;;;23.95
69186;BMP280;56298;49.246;9.410;2023-07-31T09:14:47;99208.63;;;24.03
69186;BMP280;56298;49.246;9.410;2023-07-31T09:17:13;99213.28;;;24.29
69186;BMP280;56298;49.246;9.410;2023-07-31T09:19:38;99200.91;;;24.48
69186;BMP280;56298;49.246;9.410;2023-07-31T09:22:07;99193.59;;;25.10
69186;BMP280;56298;49.246;9.410;2023-07-31T09:24:34;99188.78;;;25.29
69186;BMP280;56298;49.246;9.410;2023-07-31T09:27:01;99196.41;;;25.38
69186;BMP280;56298;49.246;9.410;2023-07-31T09:29:27;99194.53;;;25.16
69186;BMP280;56298;49.246;9.410;2023-07-31T09:31:54;99184.72;;;25.21
69186;BMP280;56298;49.246;9.410;2023-07-31T09:34:20;99194.56;;;25.26
69186;BMP280;56298;49.246;9.410;2023-07-31T09:36:47;99187.38;;;25.43
69186;BMP280;56298;49.246;9.410;2023-07-31T09:39:14;99177.72;;;25.16
69186;BMP280;56298;49.246;9.410;2023-07-31T09:41:47;99192.06;;;25.18
69186;BMP280;56298;49.246;9.410;2023-07-31T09:44:12;99187.19;;;24.91
69186;BMP280;56298;49.246;9.410;2023-07-31T09:46:38;99176.28;;;25.02
69186;BMP280;56298;49.246;9.410;2023-07-31T09:49:08;99174.75;;;25.11
69186;BMP280;56298;49.246;9.410;2023-07-31T09:51:41;99172.72;;;25.48
69186;BMP280;56298;49.246;9.410;2023-07-31T09:54:14;99171.75;;;25.52
69186;BMP280;56298;49.246;9.410;2023-07-31T09:56:44;99171.34;;;26.05
69186;BMP280;56298;49.246;9.410;2023-07-31T09:59:14;99170.19;;;26.21
69186;BMP280;56298;49.246;9.410;2023-07-31T10:01:41;99171.97;;;26.00
69186;BMP280;56298;49.246;9.410;2023-07-31T10:04:11;99179.88;;;26.11
69186;BMP280;56298;49.246;9.410;2023-07-31T10:06:37;99170.50;;;26.14
69186;BMP280;56298;49.246;9.410;2023-07-31T10:09:06;99172.34;;;25.74
69186;BMP280;56298;49.246;9.410;2023-07-31T10:11:38;99176.72;;;25.66
69186;BMP280;56298;49.246;9.410;2023-07-31T10:14:04;99171.81;;;26.04
69186;BMP280;56298;49.246;9.410;2023-07-31T10:16:31;99163.75;;;25.78
69186;BMP280;56298;49.246;9.410;2023-07-31T10:18:57;99157.56;;;26.07
69186;BMP280;56298;49.246;9.410;2023-07-31T10:21:23;99157.94;;;26.00
69186;BMP280;56298;49.246;9.410;2023-07-31T10:23:49;99168.81;;;26.17
69186;BMP280;56298;49.246;9.410;2023-07-31T10:26:17;99156.69;;;26.59
69186;BMP280;56298;49.246;9.410;2023-07-31T10:28:46;99143.00;;;27.15
69186;BMP280;56298;49.246;9.410;2023-07-31T10:31:12;99134.56;;;27.30
69186;BMP280;56298;49.246;9.410;2023-07-31T10:33:38;99134.97;;;27.23
69186;BMP280;56298;49.246;9.410;2023-07-31T10:36:20;99135.13;;;27.05
69186;BMP280;56298;49.246;9.410;2023-07-31T10:38:46;99138.94;;;26.53
69186;BMP280;56298;49.246;9.410;2023-07-31T10:41:13;99129.25;;;26.54
69186;BMP280;56298;49.246;9.410;2023-07-31T10:43:39;99134.31;;;26.40
69186;BMP280;56298;49.246;9.410;2023-07-31T10:46:11;99134.31;;;26.16
69186;BMP280;56298;49.246;9.410;2023-07-31T10:48:38;99142.78;;;26.07
69186;BMP280;56298;49.246;9.410;2023-07-31T10:51:11;99130.41;;;25.71
69186;BMP280;56298;49.246;9.410;2023-07-31T10:53:37;99125.00;;;25.39
69186;BMP280;56298;49.246;9.410;2023-07-31T10:56:04;99129.38;;;25.31
69186;BMP280;56298;49.246;9.410;2023-07-31T10:58:31;99121.56;;;25.16
69186;BMP280;56298;49.246;9.410;2023-07-31T11:01:02;99128.91;;;25.05
69186;BMP280;56298;49.246;9.410;2023-07-31T11:03:50;99125.78;;;25.12
69186;BMP280;56298;49.246;9.410;2023-07-31T11:06:19;99133.25;;;25.43
69186;BMP280;56298;49.246;9.410;2023-07-31T11:08:49;99131.94;;;25.72
69186;BMP280;56298;49.246;9.410;2023-07-31T11:11:20;99127.78;;;26.01
69186;BMP280;56298;49.246;9.410;2023-07-31T11:13:53;99124.38;;;25.97
69186;BMP280;56298;49.246;9.410;2023-07-31T11:16:20;99119.97;;;25.43
69186;BMP280;56298;49.246;9.410;2023-07-31T11:18:47;99121.22;;;25.42
69186;BMP280;56298;49.246;9.410;2023-07-31T11:21:23;99120.22;;;25.83
69186;BMP280;56298;49.246;9.410;2023-07-31T11:23:51;99119.97;;;26.05
69186;BMP280;56298;49.246;9.410;2023-07-31T11:26:17;99120.00;;;25.96
69186;BMP280;56298;49.246;9.410;2023-07-31T11:28:43;99108.28;;;26.55
69186;BMP280;56298;49.246;9.410;2023-07-31T11:31:11;99103.56;;;27.00
69186;BMP280;56298;49.246;9.410;2023-07-31T11:33:36;99106.72;;;27.47
69186;BMP280;56298;49.246;9.410;2023-07-31T11:36:02;99102.69;;;27.69
69186;BMP280;56298;49.246;9.410;2023-07-31T11:38:32;99108.59;;;28.22
69186;BMP280;56298;49.246;9.410;2023-07-31T11:41:02;99087.59;;;28.64
69186;BMP280;56298;49.246;9.410;2023-07-31T11:43:28;99096.41;;;28.31
69186;BMP280;56298;49.246;9.410;2023-07-31T11:45:56;99092.38;;;28.17
69186;BMP280;56298;49.246;9.410;2023-07-31T11:48:28;99092.81;;;27.74
69186;BMP280;56298;49.246;9.410;2023-07-31T11:50:57;99083.88;;;27.60
69186;BMP280;56298;49.246;9.410;2023-07-31T11:53:44;99086.72;;;27.81
69186;BMP280;56298;49.246;9.410;2023-07-31T11:56:12;99074.56;;;27.24
69186;BMP280;56298;49.246;9.410;2023-07-31T11:58:38;99087.38;;;27.40
69186;BMP280;56298;49.246;9.410;2023-07-31T12:01:05;99084.25;;;27.53
69186;BMP280;56298;49.246;9.410;2023-07-31T12:03:31;99090.28;;;27.61
69186;BMP280;56298;49.246;9.410;2023-07-31T12:05:58;99079.63;;;27.50
69186;BMP280;56298;49.246;9.410;2023-07-31T12:08:24;99082.59;;;27.46
69186;BMP280;56298;49.246;9.410;2023-07-31T12:10:50;99063.69;;;27.47
69186;BMP280;56298;49.246;9.410;2023-07-31T12:13:21;99072.41;;;27.49
69186;BMP280;56298;49.246;9.410;2023-07-31T12:15:47;99068.63;;;27.52
69186;BMP280;56298;49.246;9.410;2023-07-31T12:18:16;99079.53;;;27.14
69186;BMP280;56298;49.246;9.410;2023-07-31T12:20:48;99079.38;;;26.94
69186;BMP280;56298;49.246;9.410;2023-07-31T12:23:15;99067.44;;;27.59
69186;BMP280;56298;49.246;9.410;2023-07-31T12:25:41;99079.06;;;27.82
69186;BMP280;56298;49.246;9.410;2023-07-31T12:28:07;99071.16;;;27.50
69186;BMP280;56298;49.246;9.410;2023-07-31T12:30:37;99064.13;;;27.75
69186;BMP280;56298;49.246;9.410;2023-07-31T12:33:10;99060.59;;;27.30
69186;BMP280;56298;49.246;9.410;2023-07-31T12:35:38;99058.84;;;27.17
69186;BMP280;56298;49.246;9.410;2023-07-31T12:38:03;99053.78;;;26.92
69186;BMP280;56298;49.246;9.410;2023-07-31T12:40:29;99049.53;;;27.11
69186;BMP280;56298;49.246;9.410;2023-07-31T12:42:54;99046.38;;;27.09
69186;BMP280;56298;49.246;9.410;2023-07-31T12:45:20;99031.53;;;26.94
69186;BMP280;56298;49.246;9.410;2023-07-31T12:47:46;99041.66;;;27.00
69186;BMP280;56298;49.246;9.410;2023-07-31T12:50:11;99035.25;;;26.85
69186;BMP280;56298;49.246;9.410;2023-07-31T12:52:37;99036.69;;;26.95
69186;BMP280;56298;49.246;9.410;2023-07-31T12:55:03;99035.38;;;26.66
69186;BMP280;56298;49.246;9.410;2023-07-31T12:57:29;99029.44;;;26.49
69186;BMP280;56298;49.246;9.410;2023-07-31T12:59:55;99018.38;;;26.85
69186;BMP280;56298;49.246;9.410;2023-07-31T13:02:20;99015.06;;;26.86
69186;BMP280;56298;49.246;9.410;2023-07-31T13:04:45;99010.69;;;27.00
69186;BMP280;56298;49.246;9.410;2023-07-31T13:07:10;98996.38;;;26.59
69186;BMP280;56298;49.246;9.410;2023-07-31T13:09:35;99005.94;;;26.52
69186;BMP280;56298;49.246;9.410;2023-07-31T13:12:01;98996.13;;;26.33
69186;BMP280;56298;49.246;9.410;2023-07-31T13:14:26;98995.59;;;26.44
69186;BMP280;56298;49.246;9.410;2023-07-31T13:16:51;98999.56;;;26.52
69186;BMP280;56298;49.246;9.410;2023-07-31T13:19:16;98993.16;;;26.51
69186;BMP280;56298;49.246;9.410;2023-07-31T13:21:42;99001.31;;;26.49
69186;BMP280;56298;49.246;9.410;2023-07-31T13:24:07;98988.25;;;26.61
69186;BMP280;56298;49.246;9.410;2023-07-31T13:26:32;98994.69;;;26.92
69186;BMP280;56298;49.246;9.410;2023-07-31T13:28:57;98988.97;;;27.01
69186;BMP280;56298;49.246;9.410;2023-07-31T13:31:23;98986.59;;;27.29
69186;BMP280;56298;49.246;9.410;2023-07-31T13:33:48;98994.25;;;26.99
69186;BMP280;56298;49.246;9.410;2023-07-31T13:36:13;98990.69;;;27.13
69186;BMP280;56298;49.246;9.410;2023-07-31T13:38:39;98984.09;;;27.01
69186;BMP280;56298;49.246;9.410;2023-07-31T13:41:04;98978.88;;;26.94
69186;BMP280;56298;49.246;9.410;2023-07-31T13:43:30;98987.69;;;26.87
69186;BMP280;56298;49.246;9.410;2023-07-31T13:45:55;98974.34;;;27.32
69186;BMP280;56298;49.246;9.410;2023-07-31T13:48:21;98988.16;;;27.15
69186;BMP280;56298;49.246;9.410;2023-07-31T13:50:46;98987.75;;;27.23
69186;BMP280;56298;49.246;9.410;2023-07-31T13:53:11;98979.88;;;26.52
69186;BMP280;56298;49.246;9.410;2023-07-31T13:55:37;98968.69;;;26.28
69186;BMP280;56298;49.246;9.410;2023-07-31T13:58:02;98973.41;;;26.21
69186;BMP280;56298;49.246;9.410;2023-07-31T14:00:27;98970.81;;;26.33
69186;BMP280;56298;49.246;9.410;2023-07-31T14:02:53;98958.88;;;26.38
69186;BMP280;56298;49.246;9.410;2023-07-31T14:05:19;98970.47;;;26.40
69186;BMP280;56298;49.246;9.410;2023-07-31T14:07:44;98961.59;;;26.86